Archival Weather

Sydney Intl

Sydney, Australia (YSSY)

Report from: Wednesday, May 22, 2024 12:00 AM AEST
Current time: Saturday, June 22, 2024 8:02 PM AEST

Current weather – Weather history – Daily summaries
Weather forecast

Temperature12.0°C (53.6°F)
Dew point8.0°C (46.4°F)
Winds 8 kts (4.1 m/s, 9.2 mph) Northwest (310°)
Visibility6.2 mi. (10 km)
Clouds Sky clear
Altimeter30.30 in.Hg (1026 mB)
Relative humidity77 %
Density altitude-634 ft. (-193 m)
Remarks Fully automated report
No clouds detected
Flight conditions Visual Meteorological Conditions
Raw dataYSSY 211400Z AUTO 31008KT 9999 // NCD 12/08 Q1026 RF00.0/000.2
An error has occurred. This application may no longer respond until reloaded. Reload 🗙